Time;durP1;ratioP1;P1;durP2;ratioP2;P2;SDS_P1;SDS_P2;PMS_P1;PMS_P2;Temp;Humidity;BMP_temperature;BMP_pressure;BME280_temperature;BME280_humidity;BME280_pressure;Samples;Min_cycle;Max_cycle;Signal;HPM_P1;HPM_P2
2022/05/25 00:00:12;;;;;;;5.63;2.60;;;;;;;9.71;100.00;100487.75;690953;28;1424;-45
2022/05/25 00:00:32;;;;;;;4.53;2.80;;;;;;;9.73;100.00;100485.13;687407;28;1109;-43
2022/05/25 00:00:57;;;;;;;5.70;2.70;;;;;;;9.73;100.00;100484.25;686364;28;1065;-44
2022/05/25 00:01:17;;;;;;;4.97;2.60;;;;;;;9.73;100.00;100485.13;685624;28;4516;-43
2022/05/25 00:01:38;;;;;;;5.13;2.63;;;;;;;9.72;100.00;100483.41;685456;28;1100;-44
2022/05/25 00:02:01;;;;;;;5.97;2.50;;;;;;;9.73;100.00;100485.13;688884;28;1337;-44
2022/05/25 00:02:23;;;;;;;6.88;2.70;;;;;;;9.72;100.00;100486.03;689233;28;1208;-46
2022/05/25 00:02:44;;;;;;;5.13;2.65;;;;;;;9.71;100.00;100484.28;689901;28;1400;-45
2022/05/25 00:03:06;;;;;;;3.83;2.30;;;;;;;9.67;100.00;100487.78;690085;28;1560;-44
2022/05/25 00:03:28;;;;;;;5.13;2.60;;;;;;;9.62;100.00;100486.91;689664;28;1310;-43
2022/05/25 00:03:48;;;;;;;4.90;2.70;;;;;;;9.59;100.00;100487.78;690022;28;1956;-44
2022/05/25 00:04:09;;;;;;;4.80;2.72;;;;;;;9.56;100.00;100486.94;689853;28;1459;-43
2022/05/25 00:04:29;;;;;;;4.53;2.60;;;;;;;9.52;100.00;100486.94;689785;28;4420;-44
2022/05/25 00:04:52;;;;;;;4.40;2.50;;;;;;;9.52;100.00;100484.31;690034;28;1198;-44
2022/05/25 00:05:15;;;;;;;4.78;2.90;;;;;;;9.54;100.00;100490.41;689070;28;1381;-44
2022/05/25 00:05:36;;;;;;;4.32;2.80;;;;;;;9.57;100.00;100488.66;688863;28;966;-44
2022/05/25 00:05:58;;;;;;;5.07;2.88;;;;;;;9.56;100.00;100484.34;689655;28;1226;-45
2022/05/25 00:06:18;;;;;;;5.47;2.78;;;;;;;9.60;100.00;100484.31;690098;28;1041;-44
2022/05/25 00:06:40;;;;;;;5.10;2.90;;;;;;;9.63;100.00;100488.66;690355;28;1306;-43
2022/05/25 00:07:00;;;;;;;4.43;2.70;;;;;;;9.63;100.00;100491.25;692558;28;1091;-44
2022/05/25 00:07:22;;;;;;;5.13;2.40;;;;;;;9.62;100.00;100492.13;690865;28;4462;-44
2022/05/25 00:07:43;;;;;;;5.22;2.45;;;;;;;9.62;100.00;100492.13;691494;28;1396;-43
2022/05/25 00:08:04;;;;;;;6.93;2.70;;;;;;;9.59;100.00;100490.41;692160;28;1286;-45
2022/05/25 00:08:25;;;;;;;4.90;2.63;;;;;;;9.60;100.00;100493.88;692560;28;1710;-43
2022/05/25 00:08:45;;;;;;;4.90;2.50;;;;;;;9.59;100.00;100487.78;689433;28;1416;-44
2022/05/25 00:09:06;;;;;;;7.13;2.78;;;;;;;9.59;100.00;100479.94;686305;28;1185;-46
2022/05/25 00:09:26;;;;;;;5.37;2.90;;;;;;;9.60;100.00;100486.06;686768;28;1160;-46
2022/05/25 00:09:48;;;;;;;5.93;2.67;;;;;;;9.57;100.00;100484.31;687344;28;1199;-44
2022/05/25 00:10:09;;;;;;;4.93;2.60;;;;;;;9.54;100.00;100490.41;686695;28;1203;-44
2022/05/25 00:10:30;;;;;;;5.13;2.50;;;;;;;9.56;100.00;100487.81;684418;28;4493;-44
2022/05/25 00:10:51;;;;;;;4.68;2.65;;;;;;;9.57;100.00;100488.66;688254;28;1175;-46
2022/05/25 00:11:11;;;;;;;4.30;2.60;;;;;;;9.60;100.00;100486.06;690942;28;1103;-44
2022/05/25 00:11:32;;;;;;;4.53;2.70;;;;;;;9.59;100.00;100485.19;690195;28;1476;-45
2022/05/25 00:11:53;;;;;;;4.25;2.67;;;;;;;9.56;100.00;100482.59;691546;28;1329;-44
2022/05/25 00:12:16;;;;;;;4.70;2.80;;;;;;;9.58;100.00;100487.78;691816;28;1508;-43
2022/05/25 00:12:38;;;;;;;4.95;2.67;;;;;;;9.57;100.00;100488.66;688417;28;1179;-44
2022/05/25 00:12:59;;;;;;;5.10;2.70;;;;;;;9.56;100.00;100486.94;690446;28;1178;-43
2022/05/25 00:13:19;;;;;;;4.57;2.72;;;;;;;9.56;100.00;100493.03;688618;28;4453;-45
2022/05/25 00:13:40;;;;;;;4.30;2.70;;;;;;;9.54;100.00;100492.19;689554;28;1471;-43
2022/05/25 00:14:01;;;;;;;4.18;2.50;;;;;;;9.54;100.00;100486.97;690309;28;1137;-45
2022/05/25 00:14:21;;;;;;;4.43;2.50;;;;;;;9.56;100.00;100487.81;689295;28;1290;-44
2022/05/25 00:14:42;;;;;;;4.35;2.60;;;;;;;9.56;100.00;100486.94;689279;28;1330;-45
2022/05/25 00:15:03;;;;;;;4.60;2.87;;;;;;;9.57;100.00;100484.31;689375;28;1366;-43
2022/05/25 00:15:24;;;;;;;4.95;2.70;;;;;;;9.59;100.00;100487.78;689541;28;1347;-44
2022/05/25 00:15:44;;;;;;;4.63;2.60;;;;;;;9.58;100.00;100486.06;687581;28;1207;-45
2022/05/25 00:16:05;;;;;;;4.20;2.50;;;;;;;9.60;100.00;100486.06;689893;28;1476;-44
2022/05/25 00:16:25;;;;;;;4.20;2.43;;;;;;;9.60;100.00;100486.91;689688;28;4403;-45
2022/05/25 00:16:46;;;;;;;4.55;2.50;;;;;;;9.59;100.00;100493.00;689327;28;3901;-44
2022/05/25 00:17:06;;;;;;;5.80;2.80;;;;;;;9.58;100.00;100488.69;689351;28;1291;-43
2022/05/25 00:17:27;;;;;;;6.22;2.80;;;;;;;9.58;100.00;100487.78;690138;28;1313;-45
2022/05/25 00:17:47;;;;;;;5.28;2.50;;;;;;;9.59;100.00;100486.94;689977;28;1271;-44
2022/05/25 00:18:08;;;;;;;4.27;2.50;;;;;;;9.60;100.00;100491.28;689885;28;1586;-43
2022/05/25 00:18:30;;;;;;;5.93;2.70;;;;;;;9.61;100.00;100487.78;689641;28;1231;-43
2022/05/25 00:20:10;;;;;;;4.75;2.67;;;;;;;9.56;100.00;100494.78;687928;28;1197;-45
2022/05/25 00:20:30;;;;;;;4.63;2.65;;;;;;;9.57;100.00;100497.38;690393;28;1215;-43
2022/05/25 00:20:51;;;;;;;5.18;2.70;;;;;;;9.57;100.00;100493.88;689436;28;1313;-42
2022/05/25 00:21:11;;;;;;;5.17;2.70;;;;;;;9.56;100.00;100493.03;690245;28;1152;-43
2022/05/25 00:21:32;;;;;;;5.25;2.50;;;;;;;9.57;100.00;100499.09;689765;28;1373;-44
2022/05/25 00:21:54;;;;;;;6.20;2.40;;;;;;;9.55;100.00;100493.88;689567;28;1161;-44
2022/05/25 00:22:15;;;;;;;6.03;2.70;;;;;;;9.54;100.00;100495.63;689734;28;4541;-44
2022/05/25 00:22:41;;;;;;;5.28;2.60;;;;;;;9.55;100.00;100496.50;689247;28;1191;-44
2022/05/25 00:23:02;;;;;;;6.13;2.80;;;;;;;9.53;100.00;100498.25;688923;28;1472;-44
2022/05/25 00:23:23;;;;;;;4.82;2.65;;;;;;;9.50;100.00;100499.13;688338;28;1226;-44
2022/05/25 00:23:43;;;;;;;5.18;2.60;;;;;;;9.49;100.00;100493.91;690555;28;1326;-44
2022/05/25 00:24:04;;;;;;;5.63;2.70;;;;;;;9.49;100.00;100500.00;690336;28;1981;-43
2022/05/25 00:24:24;;;;;;;4.78;2.50;;;;;;;9.48;100.00;100502.63;689804;28;1663;-43
2022/05/25 00:24:45;;;;;;;4.37;2.30;;;;;;;9.48;100.00;100500.88;690220;28;1366;-44
2022/05/25 00:25:07;;;;;;;5.35;2.40;;;;;;;9.48;100.00;100500.88;690179;28;1293;-45
2022/05/25 00:25:32;;;;;;;4.82;2.58;;;;;;;9.49;100.00;100501.75;688383;28;4570;-48
2022/05/25 00:25:53;;;;;;;4.78;2.60;;;;;;;9.48;100.00;100500.00;690774;28;1226;-44
2022/05/25 00:26:13;;;;;;;4.87;2.50;;;;;;;9.47;100.00;100499.16;691229;28;1242;-44
2022/05/25 00:26:34;;;;;;;4.90;2.40;;;;;;;9.46;100.00;100496.53;689755;28;1112;-44
2022/05/25 00:26:54;;;;;;;5.20;2.60;;;;;;;9.44;100.00;100499.16;689727;28;1155;-44
2022/05/25 00:27:17;;;;;;;4.53;2.53;;;;;;;9.43;100.00;100502.63;688817;28;1341;-43
2022/05/25 00:27:38;;;;;;;5.07;3.08;;;;;;;9.40;100.00;100499.16;689959;28;1733;-45
2022/05/25 00:28:04;;;;;;;4.97;2.83;;;;;;;9.35;100.00;100512.22;690057;28;1478;-44
2022/05/25 00:28:25;;;;;;;5.47;2.88;;;;;;;9.33;100.00;100508.72;689952;28;4319;-45
2022/05/25 00:28:46;;;;;;;5.07;2.88;;;;;;;9.35;100.00;100507.00;689460;28;1187;-43
2022/05/25 00:29:06;;;;;;;5.28;2.65;;;;;;;9.34;100.00;100503.50;689762;28;1370;-45
2022/05/25 00:29:27;;;;;;;5.40;2.50;;;;;;;9.35;100.00;100504.41;688622;28;1346;-45
2022/05/25 00:29:47;;;;;;;5.70;2.77;;;;;;;9.35;100.00;100504.41;690059;28;1246;-44
2022/05/25 00:30:08;;;;;;;5.90;2.78;;;;;;;9.36;100.00;100507.00;689302;28;1434;-44
2022/05/25 00:30:30;;;;;;;5.10;2.70;;;;;;;9.37;100.00;100510.47;689515;28;1330;-43
2022/05/25 00:30:50;;;;;;;5.45;2.72;;;;;;;9.36;100.00;100506.13;689245;28;1285;-46
2022/05/25 00:31:11;;;;;;;4.77;2.70;;;;;;;9.35;100.00;100505.25;689841;28;1326;-44
2022/05/25 00:31:32;;;;;;;4.88;2.80;;;;;;;9.34;100.00;100515.69;689422;28;4955;-43
2022/05/25 00:31:53;;;;;;;4.57;2.75;;;;;;;9.36;100.00;100511.34;689894;28;1182;-45
2022/05/25 00:32:13;;;;;;;4.43;2.70;;;;;;;9.39;100.00;100511.34;688964;28;1057;-44
2022/05/25 00:32:34;;;;;;;4.80;2.60;;;;;;;9.41;100.00;100504.38;687989;28;1428;-44
2022/05/25 00:32:55;;;;;;;6.45;2.72;;;;;;;9.41;100.00;100498.28;688682;28;977;-46
2022/05/25 00:33:17;;;;;;;6.63;2.60;;;;;;;9.41;100.00;100504.38;689236;28;1326;-44
2022/05/25 00:33:37;;;;;;;4.95;2.45;;;;;;;9.42;100.00;100508.72;690059;28;1366;-45
2022/05/25 00:33:58;;;;;;;5.13;2.73;;;;;;;9.43;100.00;100507.84;688076;28;1189;-44
2022/05/25 00:34:19;;;;;;;6.07;2.60;;;;;;;9.40;100.00;100514.81;689687;28;4534;-45
2022/05/25 00:34:39;;;;;;;6.43;2.87;;;;;;;9.37;100.00;100510.47;689141;28;1426;-43
2022/05/25 00:35:00;;;;;;;6.13;2.80;;;;;;;9.36;100.00;100511.34;690033;28;1384;-45
2022/05/25 00:35:23;;;;;;;4.43;2.70;;;;;;;9.36;100.00;100513.97;689098;28;1333;-44
2022/05/25 00:35:43;;;;;;;4.95;2.60;;;;;;;9.35;100.00;100509.63;690171;28;1480;-45
2022/05/25 00:36:04;;;;;;;4.43;2.67;;;;;;;9.36;100.00;100511.34;689095;28;1708;-44
2022/05/25 00:36:25;;;;;;;4.63;2.67;;;;;;;9.34;100.00;100508.72;689308;28;1345;-45
2022/05/25 00:36:45;;;;;;;5.57;2.60;;;;;;;9.33;100.00;100508.72;688768;28;1364;-44
2022/05/25 00:37:06;;;;;;;5.73;2.77;;;;;;;9.33;100.00;100511.34;689846;28;1341;-44
2022/05/25 00:37:27;;;;;;;5.43;2.50;;;;;;;9.35;100.00;100509.63;689977;28;4334;-44
2022/05/25 00:37:48;;;;;;;6.00;2.83;;;;;;;9.36;100.00;100507.00;690517;28;1282;-43
2022/05/25 00:38:09;;;;;;;5.05;2.50;;;;;;;9.38;100.00;100509.59;688910;28;1259;-46
2022/05/25 00:38:29;;;;;;;5.78;2.70;;;;;;;9.37;100.00;100513.06;690920;28;1672;-44
2022/05/25 00:38:50;;;;;;;4.33;2.80;;;;;;;9.38;100.00;100514.81;689958;28;1200;-43
2022/05/25 00:39:10;;;;;;;4.55;2.75;;;;;;;9.37;100.00;100515.69;690266;28;4506;-44
2022/05/25 00:39:31;;;;;;;5.47;3.10;;;;;;;9.35;100.00;100509.63;689508;28;1397;-45
2022/05/25 00:39:51;;;;;;;4.93;2.87;;;;;;;9.36;100.00;100517.44;689607;28;1218;-44
2022/05/25 00:40:24;;;;;;;4.43;2.70;;;;;;;9.35;100.00;100520.03;690811;28;4320;-45
2022/05/25 00:40:45;;;;;;;4.28;2.60;;;;;;;9.33;100.00;100511.34;689284;28;1517;-46
2022/05/25 00:41:06;;;;;;;4.78;2.63;;;;;;;9.32;100.00;100509.63;689690;28;1365;-44
2022/05/25 00:41:30;;;;;;;4.87;2.70;;;;;;;9.31;100.00;100508.75;689406;28;1318;-44
2022/05/25 00:41:51;;;;;;;4.53;2.80;;;;;;;9.35;100.00;100517.44;689285;28;1210;-44
2022/05/25 00:42:12;;;;;;;4.43;2.83;;;;;;;9.34;100.00;100515.69;690257;28;1423;-45
2022/05/25 00:42:35;;;;;;;4.70;2.70;;;;;;;9.36;100.00;100514.81;690707;28;1408;-44
2022/05/25 00:42:56;;;;;;;4.50;2.60;;;;;;;9.37;100.00;100519.19;690374;28;1254;-45
2022/05/25 00:43:17;;;;;;;4.60;2.67;;;;;;;9.36;100.00;100519.19;690174;28;4464;-46
2022/05/25 00:43:37;;;;;;;5.75;2.65;;;;;;;9.33;100.00;100512.22;689850;28;1401;-44
2022/05/25 00:43:59;;;;;;;7.00;2.70;;;;;;;9.34;100.00;100520.91;689903;28;1986;-45
2022/05/25 00:44:19;;;;;;;4.93;2.70;;;;;;;9.34;100.00;100518.31;690360;28;1310;-45
2022/05/25 00:44:39;;;;;;;5.17;3.10;;;;;;;9.34;100.00;100518.31;690826;28;1310;-45
2022/05/25 00:45:01;;;;;;;5.37;3.00;;;;;;;9.33;100.00;100517.44;690677;28;1209;-45
2022/05/25 00:45:21;;;;;;;4.60;2.90;;;;;;;9.32;100.00;100515.69;688278;28;1239;-44
2022/05/25 00:45:58;;;;;;;5.33;2.90;;;;;;;9.30;100.00;100522.66;689560;28;1400;-43
2022/05/25 00:46:21;;;;;;;4.95;2.80;;;;;;;9.28;100.00;100519.19;689584;28;4383;-45
2022/05/25 00:46:41;;;;;;;4.60;2.75;;;;;;;9.26;100.00;100520.91;689298;28;1368;-44
2022/05/25 00:47:02;;;;;;;5.72;2.90;;;;;;;9.25;100.00;100520.91;690191;28;1404;-45
2022/05/25 00:47:26;;;;;;;4.30;2.67;;;;;;;9.24;100.00;100517.44;688935;28;1456;-44
2022/05/25 00:47:49;;;;;;;5.90;2.72;;;;;;;9.25;100.00;100516.59;688969;28;1230;-45
2022/05/25 00:48:18;;;;;;;5.68;3.00;;;;;;;9.27;100.00;100521.81;689394;28;1408;-44
2022/05/25 00:48:44;;;;;;;5.15;2.92;;;;;;;9.25;100.00;100516.59;690147;28;1309;-43
2022/05/25 00:49:12;;;;;;;4.75;2.80;;;;;;;9.28;100.00;100523.53;689310;28;1282;-44
2022/05/25 00:49:35;;;;;;;4.32;2.80;;;;;;;9.27;100.00;100522.66;689637;28;4701;-45
2022/05/25 00:49:55;;;;;;;5.53;3.17;;;;;;;9.26;100.00;100525.28;690009;28;1180;-44
2022/05/25 00:50:19;;;;;;;5.83;2.90;;;;;;;9.24;100.00;100522.66;690482;28;1318;-44
2022/05/25 00:51:28;;;;;;;4.40;2.80;;;;;;;9.22;100.00;100521.81;689327;28;1318;-45
2022/05/25 00:51:53;;;;;;;4.50;2.70;;;;;;;9.22;100.00;100524.44;687143;28;1228;-45
2022/05/25 00:52:15;;;;;;;4.72;2.70;;;;;;;9.23;100.00;100520.91;688226;28;4389;-45
2022/05/25 00:52:38;;;;;;;6.28;2.90;;;;;;;9.24;100.00;100527.03;687054;28;1351;-44
2022/05/25 00:52:58;;;;;;;5.95;3.05;;;;;;;9.23;100.00;100525.28;686959;28;1246;-45
2022/05/25 00:53:20;;;;;;;4.90;2.92;;;;;;;9.23;100.00;100525.28;687782;28;1550;-46
2022/05/25 00:53:45;;;;;;;6.45;2.85;;;;;;;9.23;100.00;100525.28;684347;28;1295;-44
2022/05/25 00:54:10;;;;;;;5.00;2.80;;;;;;;9.24;100.00;100532.25;686640;28;1605;-44
2022/05/25 00:54:34;;;;;;;5.43;2.92;;;;;;;9.23;100.00;100526.13;689052;28;1097;-43
2022/05/25 00:55:00;;;;;;;6.18;3.00;;;;;;;9.22;100.00;100524.44;687194;28;1277;-44
2022/05/25 00:55:29;;;;;;;5.07;2.80;;;;;;;9.22;100.00;100531.38;686513;28;4310;-45
2022/05/25 00:55:50;;;;;;;4.85;2.80;;;;;;;9.19;100.00;100533.13;686477;28;1267;-44
2022/05/25 00:56:16;;;;;;;7.50;3.15;;;;;;;9.18;100.00;100527.91;684925;28;1350;-45
2022/05/25 00:56:41;;;;;;;5.90;2.95;;;;;;;9.18;100.00;100527.91;685745;28;1365;-43
2022/05/25 00:57:13;;;;;;;5.35;2.85;;;;;;;9.19;100.00;100529.63;687220;28;1298;-44
2022/05/25 00:57:38;;;;;;;4.90;2.90;;;;;;;9.19;100.00;100530.50;691739;28;1408;-45
2022/05/25 00:58:00;;;;;;;4.72;2.85;;;;;;;9.19;100.00;100529.63;690555;28;1139;-44
2022/05/25 00:58:21;;;;;;;4.90;3.10;;;;;;;9.18;100.00;100527.91;689559;28;4533;-45
2022/05/25 00:58:47;;;;;;;5.38;2.90;;;;;;;9.18;100.00;100522.69;689851;28;1559;-47
2022/05/25 00:59:21;;;;;;;4.45;2.80;;;;;;;9.20;100.00;100529.63;689225;28;1358;-44
2022/05/25 00:59:53;;;;;;;4.97;2.88;;;;;;;9.20;100.00;100529.63;689342;28;1358;-45
2022/05/25 01:00:22;;;;;;;5.78;3.10;;;;;;;9.17;100.00;100529.63;690279;28;1361;-46
2022/05/25 01:00:42;;;;;;;5.20;2.80;;;;;;;9.14;100.00;100526.19;690422;28;1408;-45
2022/05/25 01:01:05;;;;;;;5.00;3.27;;;;;;;9.14;100.00;100523.56;690042;28;1361;-45
2022/05/25 01:01:27;;;;;;;4.55;3.17;;;;;;;9.13;100.00;100530.50;688172;28;5464;-44
2022/05/25 01:01:48;;;;;;;5.82;3.17;;;;;;;9.11;100.00;100532.25;689045;28;1231;-44
2022/05/25 01:02:09;;;;;;;5.85;3.10;;;;;;;9.09;100.00;100533.13;688399;28;1298;-43
2022/05/25 01:02:31;;;;;;;6.40;3.20;;;;;;;9.07;100.00;100530.53;690035;28;1444;-46
2022/05/25 01:02:59;;;;;;;6.20;3.58;;;;;;;9.07;100.00;100533.13;692496;28;1139;-46
2022/05/25 01:03:20;;;;;;;5.40;3.20;;;;;;;9.05;100.00;100537.47;692178;28;880;-46
2022/05/25 01:03:41;;;;;;;5.20;3.35;;;;;;;9.04;100.00;100530.50;692094;28;1365;-45
2022/05/25 01:04:01;;;;;;;6.50;3.42;;;;;;;9.01;100.00;100531.41;691738;28;1981;-45
2022/05/25 01:04:23;;;;;;;5.67;3.20;;;;;;;9.03;100.00;100539.22;690659;28;4538;-45
2022/05/25 01:04:44;;;;;;;4.85;3.10;;;;;;;9.06;100.00;100535.75;689031;28;2774;-44
2022/05/25 01:05:05;;;;;;;5.20;3.08;;;;;;;9.08;100.00;100537.44;689170;28;1520;-45
2022/05/25 01:05:32;;;;;;;6.00;3.10;;;;;;;9.09;100.00;100538.34;685619;28;1413;-44
2022/05/25 01:05:58;;;;;;;4.93;2.80;;;;;;;9.10;100.00;100540.09;684496;28;1121;-44
2022/05/25 01:06:40;;;;;;;5.95;3.22;;;;;;;9.10;100.00;100535.72;686930;28;1980;-44
2022/05/25 01:07:27;;;;;;;4.65;2.90;;;;;;;9.13;100.00;100535.72;687325;28;1346;-44
2022/05/25 01:08:41;;;;;;;5.78;3.30;;;;;;;9.15;100.00;100539.22;687638;28;5148;-45
2022/05/25 01:09:23;;;;;;;4.50;3.10;;;;;;;9.15;100.00;100544.44;681877;28;1922;-44
2022/05/25 01:09:57;;;;;;;5.57;3.05;;;;;;;9.15;100.00;100538.31;681480;28;1552;-45
2022/05/25 01:10:32;;;;;;;5.60;3.00;;;;;;;9.16;100.00;100534.84;681187;28;4444;-44
2022/05/25 01:11:18;;;;;;;4.97;2.97;;;;;;;9.11;100.00;100537.47;682802;28;1255;-44
2022/05/25 01:12:07;;;;;;;6.28;2.95;;;;;;;9.14;100.00;100539.22;680455;28;1422;-44
2022/05/25 01:12:54;;;;;;;5.95;3.03;;;;;;;9.18;100.00;100536.59;685225;28;1315;-44
2022/05/25 01:13:27;;;;;;;5.18;3.00;;;;;;;9.19;100.00;100540.94;683422;28;4352;-45
2022/05/25 01:14:12;;;;;;;4.90;3.10;;;;;;;9.19;100.00;100540.06;682871;28;1556;-44
2022/05/25 01:15:01;;;;;;;6.65;2.90;;;;;;;9.15;100.00;100534.00;689084;28;1348;-44
2022/05/25 01:15:32;;;;;;;5.70;3.10;;;;;;;9.16;100.00;100545.28;685987;28;1916;-44
2022/05/25 01:16:30;;;;;;;5.13;2.83;;;;;;;9.14;100.00;100541.81;688572;28;1080;-45
2022/05/25 01:17:09;;;;;;;5.07;2.67;;;;;;;9.14;100.00;100534.84;688393;28;4697;-45
2022/05/25 01:18:00;;;;;;;5.75;2.90;;;;;;;9.17;100.00;100536.59;689279;28;1186;-44
2022/05/25 01:18:40;;;;;;;5.70;2.90;;;;;;;9.16;100.00;100530.50;689343;28;1356;-46
2022/05/25 01:19:24;;;;;;;5.40;3.13;;;;;;;9.15;100.00;100534.00;689690;28;1513;-44
2022/05/25 01:19:44;;;;;;;4.68;3.00;;;;;;;9.15;100.00;100539.22;684482;28;5156;-46
2022/05/25 01:20:23;;;;;;;5.50;3.03;;;;;;;9.16;100.00;100545.28;689120;28;1388;-46
2022/05/25 01:20:47;;;;;;;6.72;3.20;;;;;;;9.15;100.00;100544.44;690720;28;1215;-44
2022/05/25 01:21:17;;;;;;;4.63;3.20;;;;;;;9.11;100.00;100542.69;689255;28;1226;-44
2022/05/25 01:21:55;;;;;;;4.70;2.80;;;;;;;9.09;100.00;100540.94;686999;28;1128;-46
2022/05/25 01:22:49;;;;;;;5.53;2.92;;;;;;;9.07;100.00;100540.94;686497;28;4389;-44
2022/05/25 01:23:31;;;;;;;5.57;3.15;;;;;;;9.04;100.00;100543.53;687899;28;1325;-44
2022/05/25 01:24:01;;;;;;;5.80;2.90;;;;;;;9.04;100.00;100551.38;691892;28;1910;-45
2022/05/25 01:24:48;;;;;;;6.60;3.10;;;;;;;9.01;100.00;100544.44;691851;28;1257;-44
2022/05/25 01:25:43;;;;;;;3.97;2.75;;;;;;;8.98;100.00;100543.56;690522;28;1315;-46
2022/05/25 01:26:19;;;;;;;5.30;2.83;;;;;;;8.96;100.00;100542.69;688467;28;4860;-45
2022/05/25 01:27:12;;;;;;;6.57;3.92;;;;;;;8.95;100.00;100544.41;687944;28;1263;-44
2022/05/25 01:27:38;;;;;;;6.35;3.10;;;;;;;8.94;100.00;100545.28;689191;28;1229;-45
2022/05/25 01:28:10;;;;;;;7.62;3.18;;;;;;;8.95;100.00;100543.56;688869;28;1197;-44
2022/05/25 01:29:01;;;;;;;5.20;2.97;;;;;;;8.91;100.00;100544.44;688230;28;1246;-45
2022/05/25 01:29:22;;;;;;;6.38;3.10;;;;;;;8.89;100.00;100547.03;688140;28;1214;-45
2022/05/25 01:30:07;;;;;;;5.57;2.95;;;;;;;8.88;100.00;100545.28;688977;28;1313;-44
2022/05/25 01:30:36;;;;;;;5.70;2.90;;;;;;;8.86;100.00;100547.91;690363;28;1252;-46
2022/05/25 01:30:58;;;;;;;5.78;3.20;;;;;;;8.88;100.00;100547.91;687688;28;1673;-44
2022/05/25 01:31:24;;;;;;;5.68;3.10;;;;;;;8.88;100.00;100550.50;689049;28;4334;-45
2022/05/25 01:31:59;;;;;;;6.40;3.30;;;;;;;8.88;100.00;100557.47;687812;28;1854;-44
2022/05/25 01:32:38;;;;;;;4.90;3.25;;;;;;;8.86;100.00;100553.13;689192;28;1306;-44
2022/05/25 01:33:19;;;;;;;5.18;2.80;;;;;;;8.84;100.00;100556.59;688367;28;1111;-44
2022/05/25 01:33:54;;;;;;;5.22;2.80;;;;;;;8.81;100.00;100552.25;687511;28;1282;-45
2022/05/25 01:34:27;;;;;;;6.88;3.10;;;;;;;8.81;100.00;100559.19;688656;28;4505;-45
2022/05/25 01:35:06;;;;;;;5.50;3.35;;;;;;;8.81;100.00;100553.97;690057;28;1245;-44
2022/05/25 01:35:47;;;;;;;5.00;3.30;;;;;;;8.83;100.00;100555.72;689810;28;1099;-44
2022/05/25 01:36:22;;;;;;;5.43;3.15;;;;;;;8.84;100.00;100557.44;689855;28;1183;-44
2022/05/25 01:36:49;;;;;;;5.35;3.30;;;;;;;8.89;100.00;100557.47;688013;28;1383;-45
2022/05/25 01:37:27;;;;;;;6.15;2.97;;;;;;;8.91;100.00;100557.47;689125;28;1324;-45
2022/05/25 01:37:55;;;;;;;6.80;3.90;;;;;;;8.90;100.00;100555.72;688762;28;4753;-47
2022/05/25 01:38:37;;;;;;;6.03;3.13;;;;;;;8.90;100.00;100560.94;689253;28;1120;-45
2022/05/25 01:38:58;;;;;;;5.97;3.10;;;;;;;8.89;100.00;100551.38;688936;28;1158;-45
2022/05/25 01:39:24;;;;;;;6.30;3.22;;;;;;;8.87;100.00;100556.59;689646;28;4183;-45
2022/05/25 01:40:06;;;;;;;5.72;3.20;;;;;;;8.85;100.00;100559.19;685751;28;1302;-46
2022/05/25 01:40:36;;;;;;;5.68;3.65;;;;;;;8.84;100.00;100554.84;688057;28;4576;-44
2022/05/25 01:41:02;;;;;;;5.55;3.22;;;;;;;8.82;100.00;100556.59;685563;28;1955;-45
2022/05/25 01:41:34;;;;;;;5.10;3.00;;;;;;;8.83;100.00;100558.34;687374;28;1206;-44
2022/05/25 01:42:24;;;;;;;4.53;2.97;;;;;;;8.82;100.00;100564.41;689280;28;1183;-43
2022/05/25 01:42:55;;;;;;;5.55;3.05;;;;;;;8.82;100.00;100560.91;687215;28;1890;-47
2022/05/25 01:43:19;;;;;;;5.35;3.10;;;;;;;8.83;100.00;100563.56;689064;28;4499;-45
2022/05/25 01:43:58;;;;;;;4.47;3.13;;;;;;;8.79;100.00;100564.41;689670;28;1761;-44
2022/05/25 01:44:24;;;;;;;5.00;3.35;;;;;;;8.77;100.00;100558.31;689477;28;1384;-44
2022/05/25 01:44:51;;;;;;;5.30;3.13;;;;;;;8.76;100.00;100559.19;689619;28;1389;-43
2022/05/25 01:45:14;;;;;;;5.68;3.40;;;;;;;8.74;100.00;100560.06;689602;28;1190;-44
2022/05/25 01:45:40;;;;;;;4.88;3.08;;;;;;;8.76;100.00;100561.78;688331;28;1368;-46
2022/05/25 01:46:09;;;;;;;5.00;3.22;;;;;;;8.78;100.00;100560.06;690568;28;1481;-45
2022/05/25 01:46:32;;;;;;;5.43;3.25;;;;;;;8.79;100.00;100559.19;689973;28;4525;-43
2022/05/25 01:47:01;;;;;;;5.30;3.08;;;;;;;8.80;100.00;100562.66;692264;28;1166;-44
2022/05/25 01:47:25;;;;;;;6.45;3.20;;;;;;;8.79;100.00;100567.03;690519;28;1278;-44
2022/05/25 01:47:49;;;;;;;5.55;3.13;;;;;;;8.80;100.00;100568.75;691354;28;1500;-45
2022/05/25 01:48:12;;;;;;;6.07;3.20;;;;;;;8.79;100.00;100558.31;688807;28;1499;-45
2022/05/25 01:48:38;;;;;;;5.95;3.38;;;;;;;8.74;100.00;100563.53;689151;28;1346;-45
2022/05/25 01:49:03;;;;;;;5.15;3.08;;;;;;;8.72;100.00;100564.38;689008;28;1227;-44
2022/05/25 01:49:32;;;;;;;5.53;3.30;;;;;;;8.73;100.00;100566.13;689423;28;5279;-45
2022/05/25 01:49:58;;;;;;;5.88;3.33;;;;;;;8.75;100.00;100564.38;691006;28;1162;-44
2022/05/25 01:50:32;;;;;;;5.82;3.03;;;;;;;8.76;100.00;100566.13;690000;28;1349;-46
2022/05/25 01:50:59;;;;;;;4.50;2.90;;;;;;;8.74;100.00;100562.69;689864;28;1155;-44
2022/05/25 01:51:24;;;;;;;6.32;3.10;;;;;;;8.75;100.00;100565.28;689151;28;1322;-44
2022/05/25 01:51:50;;;;;;;5.90;3.03;;;;;;;8.77;100.00;100560.06;688602;28;1289;-45
2022/05/25 01:52:16;;;;;;;4.85;3.25;;;;;;;8.81;100.00;100559.19;689793;28;1361;-44
2022/05/25 01:52:43;;;;;;;8.27;3.20;;;;;;;8.85;100.00;100560.94;689272;28;4715;-43
2022/05/25 01:53:07;;;;;;;5.70;3.10;;;;;;;8.84;100.00;100562.66;690247;28;1516;-44
2022/05/25 01:53:33;;;;;;;5.00;3.00;;;;;;;8.78;100.00;100557.47;688955;28;1278;-44
2022/05/25 01:53:58;;;;;;;4.85;3.15;;;;;;;8.72;100.00;100565.25;689095;28;1040;-43
2022/05/25 01:54:21;;;;;;;5.70;3.33;;;;;;;8.72;100.00;100562.66;689482;28;1376;-44
2022/05/25 01:54:49;;;;;;;4.93;3.30;;;;;;;8.71;100.00;100565.25;689251;28;1393;-45
2022/05/25 01:55:17;;;;;;;5.38;3.35;;;;;;;8.67;100.00;100560.03;687892;28;1290;-44
2022/05/25 01:55:46;;;;;;;5.38;3.60;;;;;;;8.66;100.00;100560.91;688471;28;4695;-44
2022/05/25 01:56:08;;;;;;;5.10;3.13;;;;;;;8.67;100.00;100561.78;690394;28;1313;-44
2022/05/25 01:56:31;;;;;;;4.80;3.05;;;;;;;8.68;100.00;100563.50;689822;28;1207;-46
2022/05/25 01:56:55;;;;;;;4.43;3.10;;;;;;;8.68;100.00;100558.28;689433;28;1151;-44
2022/05/25 01:57:17;;;;;;;6.05;3.42;;;;;;;8.72;100.00;100560.03;689611;28;1353;-45
2022/05/25 01:57:44;;;;;;;5.05;3.10;;;;;;;8.73;100.00;100558.31;689626;28;1314;-46
2022/05/25 01:58:10;;;;;;;5.93;3.10;;;;;;;8.75;100.00;100560.06;688714;28;1222;-44
2022/05/25 01:58:36;;;;;;;4.70;2.80;;;;;;;8.75;100.00;100549.63;689513;28;4245;-44
2022/05/25 01:59:01;;;;;;;5.43;3.15;;;;;;;8.75;100.00;100559.19;685235;28;1385;-44
2022/05/25 01:59:22;;;;;;;5.20;3.20;;;;;;;8.72;100.00;100552.22;686626;28;1386;-45
2022/05/25 01:59:43;;;;;;;5.60;3.27;;;;;;;8.69;100.00;100555.72;685453;28;1489;-46
2022/05/25 02:00:06;;;;;;;6.40;3.28;;;;;;;8.72;100.00;100556.56;685479;28;1774;-46
2022/05/25 02:00:34;;;;;;;7.45;3.45;;;;;;;8.71;100.00;100553.09;686845;28;1204;-44
2022/05/25 02:00:59;;;;;;;5.75;3.20;;;;;;;8.71;100.00;100555.72;686536;28;1306;-44
2022/05/25 02:01:20;;;;;;;5.03;3.03;;;;;;;8.71;100.00;100557.44;687355;28;4453;-44
2022/05/25 02:04:33;;;;;;;5.60;3.38;;;;;;;8.66;100.00;100560.91;687466;28;4953;-45
2022/05/25 02:04:56;;;;;;;5.63;3.20;;;;;;;8.67;100.00;100559.19;689335;28;1300;-45
2022/05/25 02:05:19;;;;;;;5.18;3.20;;;;;;;8.68;100.00;100566.13;688330;28;1218;-43
2022/05/25 02:05:48;;;;;;;4.80;3.00;;;;;;;8.69;100.00;100562.66;688457;28;1441;-47
2022/05/25 02:06:16;;;;;;;4.68;3.15;;;;;;;8.72;100.00;100562.66;688508;28;1178;-45
2022/05/25 02:07:06;;;;;;;4.45;2.90;;;;;;;8.69;100.00;100560.03;687821;28;1224;-44
2022/05/25 02:07:41;;;;;;;5.00;3.28;;;;;;;8.61;100.00;100556.56;686799;28;4551;-44
2022/05/25 02:08:34;;;;;;;5.57;3.22;;;;;;;8.61;100.00;100565.25;688740;28;1192;-45
2022/05/25 02:09:09;;;;;;;4.90;3.20;;;;;;;8.60;100.00;100565.22;680160;28;1288;-45
2022/05/25 02:09:41;;;;;;;5.60;3.25;;;;;;;8.57;100.00;100565.22;681907;28;1397;-44
2022/05/25 02:10:24;;;;;;;5.20;3.10;;;;;;;8.58;100.00;100561.75;683637;28;1221;-46